Time;durP1;ratioP1;P1;durP2;ratioP2;P2;SDS_P1;SDS_P2;PMS_P1;PMS_P2;Temp;Humidity;BMP_temperature;BMP_pressure;BME280_temperature;BME280_humidity;BME280_pressure;Samples;Min_cycle;Max_cycle;Signal;HPM_P1;HPM_P2
2022/09/08 00:00:21;;;;;;;6.23;5.73;;;26.30;46.70;;;;;;4977474;28;20427;-80
2022/09/08 00:03:05;;;;;;;5.50;5.20;;;26.30;46.60;;;;;;4976851;28;20930;-80
2022/09/08 00:05:34;;;;;;;5.70;5.30;;;26.30;46.60;;;;;;4976796;28;20527;-79
2022/09/08 00:08:09;;;;;;;6.33;5.83;;;26.30;46.70;;;;;;4976618;28;20546;-79
2022/09/08 00:10:37;;;;;;;5.30;4.90;;;26.30;46.60;;;;;;4974520;28;20454;-78
2022/09/08 00:13:07;;;;;;;5.97;5.57;;;26.30;46.80;;;;;;4976548;28;20420;-80
2022/09/08 00:15:37;;;;;;;8.10;5.30;;;26.20;46.40;;;;;;4965685;28;20482;-79
2022/09/08 00:18:06;;;;;;;5.20;4.80;;;26.20;46.80;;;;;;4976327;28;20449;-82
2022/09/08 00:20:34;;;;;;;5.60;5.20;;;26.30;46.60;;;;;;4977206;28;20457;-79
2022/09/08 00:23:02;;;;;;;5.63;5.23;;;26.30;46.20;;;;;;4976481;28;20458;-79
2022/09/08 00:25:30;;;;;;;5.63;5.23;;;26.30;46.40;;;;;;4978081;28;20470;-79
2022/09/08 00:27:58;;;;;;;6.40;5.73;;;26.20;46.20;;;;;;4976648;28;20425;-79
2022/09/08 00:30:26;;;;;;;4.80;4.50;;;26.20;46.30;;;;;;4975763;28;20424;-78
2022/09/08 00:32:55;;;;;;;5.67;5.27;;;26.20;46.40;;;;;;4975940;28;20449;-79
2022/09/08 00:35:23;;;;;;;5.50;5.10;;;26.20;46.20;;;;;;4975083;28;20971;-79
2022/09/08 00:37:51;;;;;;;5.90;5.40;;;26.10;46.40;;;;;;4976325;28;20445;-79
2022/09/08 00:40:20;;;;;;;5.60;5.00;;;26.10;46.30;;;;;;4979436;28;20826;-79
2022/09/08 00:42:47;;;;;;;6.00;5.50;;;26.10;46.10;;;;;;4979908;28;20465;-79
2022/09/08 00:45:17;;;;;;;5.30;4.90;;;26.10;46.10;;;;;;4978416;28;20476;-79
2022/09/08 00:47:49;;;;;;;4.90;4.60;;;26.00;46.20;;;;;;4980186;28;20428;-79
2022/09/08 00:50:20;;;;;;;5.10;4.77;;;26.10;46.20;;;;;;4975830;28;20417;-79
2022/09/08 00:52:50;;;;;;;5.50;5.10;;;26.10;46.00;;;;;;4975467;28;20428;-79
2022/09/08 00:55:18;;;;;;;5.87;5.40;;;26.10;46.00;;;;;;4975185;28;20478;-79
2022/09/08 00:57:46;;;;;;;4.63;4.33;;;26.10;45.90;;;;;;4975681;28;20429;-79
2022/09/08 01:00:16;;;;;;;5.30;5.00;;;26.10;45.80;;;;;;4975409;28;20451;-79
2022/09/08 01:02:45;;;;;;;5.00;4.70;;;26.00;46.40;;;;;;4975462;28;20537;-79
2022/09/08 01:05:14;;;;;;;5.77;5.33;;;26.00;45.70;;;;;;4963009;28;20840;-79
2022/09/08 01:13:37;;;;;;;4.97;4.67;;;25.90;45.60;;;;;;4955639;29;20421;-78
2022/09/08 01:16:05;;;;;;;5.30;4.90;;;25.90;45.80;;;;;;4955356;28;20457;-79
2022/09/08 01:18:33;;;;;;;4.93;4.63;;;25.90;45.90;;;;;;4954181;28;20422;-79
2022/09/08 01:21:06;;;;;;;4.70;4.43;;;25.90;45.60;;;;;;4955281;29;20942;-79
2022/09/08 01:24:06;;;;;;;4.83;4.47;;;25.90;45.70;;;;;;4955628;29;20462;-78
2022/09/08 01:26:37;;;;;;;4.40;4.17;;;25.90;45.70;;;;;;4955962;28;20438;-80
2022/09/08 01:29:06;;;;;;;4.70;4.40;;;25.90;45.60;;;;;;4956105;29;20447;-79
2022/09/08 01:31:36;;;;;;;4.80;4.50;;;25.90;45.50;;;;;;4956074;29;20935;-79
2022/09/08 01:34:04;;;;;;;4.50;4.30;;;25.90;46.00;;;;;;4955607;29;20426;-78
2022/09/08 01:36:32;;;;;;;4.80;4.50;;;25.90;45.30;;;;;;4955363;28;20453;-79
2022/09/08 01:39:00;;;;;;;4.67;4.37;;;25.90;45.40;;;;;;4955537;28;20447;-79
2022/09/08 01:41:28;;;;;;;5.00;4.60;;;25.80;45.50;;;;;;4954801;29;20422;-79
2022/09/08 01:43:56;;;;;;;4.67;4.30;;;25.80;45.40;;;;;;4959225;29;20508;-79
2022/09/08 01:46:26;;;;;;;4.77;4.47;;;25.80;45.40;;;;;;4978390;28;20488;-78
2022/09/08 01:48:54;;;;;;;4.73;4.43;;;25.80;45.60;;;;;;4979102;28;20449;-79
2022/09/08 01:51:22;;;;;;;4.90;4.60;;;25.80;45.40;;;;;;4977928;28;20409;-78
2022/09/08 01:53:50;;;;;;;4.53;4.23;;;25.80;45.30;;;;;;4974426;28;20455;-78
2022/09/08 01:56:17;;;;;;;4.87;4.47;;;25.80;45.20;;;;;;4973371;28;20483;-79
2022/09/08 01:58:45;;;;;;;4.80;4.50;;;25.70;45.20;;;;;;4978690;28;20470;-78
2022/09/08 02:01:13;;;;;;;4.27;4.07;;;25.70;45.30;;;;;;4976889;28;20416;-78
2022/09/08 02:03:42;;;;;;;4.00;3.80;;;25.70;45.40;;;;;;4974637;29;20445;-80
2022/09/08 02:06:10;;;;;;;4.30;4.10;;;25.60;45.20;;;;;;4995032;28;20443;-80
2022/09/08 02:08:43;;;;;;;4.83;4.57;;;25.60;45.20;;;;;;4994374;28;20468;-80
2022/09/08 02:11:11;;;;;;;3.97;3.77;;;25.60;44.90;;;;;;4990019;28;20510;-80
2022/09/08 02:13:39;;;;;;;4.23;4.03;;;25.60;45.20;;;;;;4984141;28;20475;-80
2022/09/08 02:16:07;;;;;;;4.70;4.43;;;25.60;45.10;;;;;;4978665;28;20452;-80
2022/09/08 02:18:35;;;;;;;4.63;4.33;;;25.60;45.00;;;;;;4978507;28;20428;-80
2022/09/08 02:21:07;;;;;;;4.80;4.50;;;25.60;45.00;;;;;;4978374;28;20457;-79
2022/09/08 02:23:35;;;;;;;4.70;4.40;;;25.70;45.00;;;;;;4977894;28;20461;-80
2022/09/08 02:26:05;;;;;;;4.30;4.10;;;25.60;44.80;;;;;;4977703;28;21041;-81
2022/09/08 02:28:33;;;;;;;4.63;4.40;;;25.60;45.00;;;;;;4977813;28;20453;-81
2022/09/08 02:31:01;;;;;;;3.90;3.70;;;25.60;45.00;;;;;;4977850;28;20453;-81
2022/09/08 02:33:30;;;;;;;4.87;4.47;;;25.50;45.00;;;;;;4978191;28;20450;-81
2022/09/08 02:35:58;;;;;;;4.40;4.20;;;25.60;45.10;;;;;;4978277;28;20488;-81
2022/09/08 02:38:27;;;;;;;4.57;4.27;;;25.60;44.90;;;;;;4977362;28;20461;-81
2022/09/08 02:40:56;;;;;;;4.20;3.90;;;25.60;44.90;;;;;;4973075;28;20480;-81
2022/09/08 02:43:24;;;;;;;4.30;4.00;;;25.60;44.90;;;;;;4978390;28;20435;-81
2022/09/08 02:45:52;;;;;;;4.40;4.20;;;25.60;44.90;;;;;;4978457;28;20531;-81
2022/09/08 02:48:20;;;;;;;4.40;4.10;;;25.50;44.70;;;;;;4977712;28;20477;-81
2022/09/08 02:50:48;;;;;;;3.90;3.70;;;25.50;44.80;;;;;;4978893;28;20417;-81
2022/09/08 02:53:16;;;;;;;4.03;3.83;;;25.60;44.90;;;;;;4978238;28;20484;-81
2022/09/08 02:55:46;;;;;;;3.93;3.73;;;25.50;44.60;;;;;;4977958;28;20473;-81
2022/09/08 02:58:14;;;;;;;4.40;4.10;;;25.50;44.70;;;;;;4977642;28;20432;-80
2022/09/08 03:00:42;;;;;;;4.00;3.80;;;25.40;44.70;;;;;;4977925;28;20435;-81
2022/09/08 03:03:10;;;;;;;3.80;3.60;;;25.40;44.70;;;;;;4977554;28;20420;-81
2022/09/08 03:05:38;;;;;;;3.83;3.63;;;25.40;44.80;;;;;;4963198;28;20441;-81
2022/09/08 03:08:06;;;;;;;4.43;4.10;;;25.40;44.70;;;;;;4958362;29;20418;-81
2022/09/08 03:10:34;;;;;;;4.33;4.13;;;25.40;44.70;;;;;;4958008;28;20456;-81
2022/09/08 03:13:03;;;;;;;4.97;4.40;;;25.40;44.70;;;;;;4958449;29;20451;-81
2022/09/08 03:15:31;;;;;;;4.10;3.90;;;25.30;44.70;;;;;;4958303;28;20463;-81
2022/09/08 03:17:59;;;;;;;4.07;3.87;;;25.40;44.80;;;;;;4958693;29;20464;-81
2022/09/08 03:20:27;;;;;;;3.80;3.60;;;25.30;44.80;;;;;;4959039;29;20432;-81
2022/09/08 03:22:55;;;;;;;3.73;3.57;;;25.40;44.80;;;;;;4958369;29;20413;-81
2022/09/08 03:25:22;;;;;;;3.63;3.47;;;25.30;44.80;;;;;;4958737;28;20441;-81
2022/09/08 03:27:50;;;;;;;4.40;4.10;;;25.30;44.70;;;;;;4958811;29;20421;-81
2022/09/08 03:30:20;;;;;;;3.90;3.70;;;25.30;44.70;;;;;;4958437;29;20835;-81
2022/09/08 03:32:48;;;;;;;4.50;4.30;;;25.30;44.50;;;;;;4958094;29;20455;-81
2022/09/08 03:35:17;;;;;;;4.17;3.90;;;25.30;44.60;;;;;;4958261;28;20456;-81
2022/09/08 03:37:45;;;;;;;4.77;4.37;;;25.30;44.70;;;;;;4958351;29;20475;-80
2022/09/08 03:40:15;;;;;;;4.67;4.37;;;25.30;44.60;;;;;;4958249;28;20462;-80
2022/09/08 03:42:43;;;;;;;4.23;3.93;;;25.30;44.50;;;;;;4962279;29;20424;-80
2022/09/08 03:45:12;;;;;;;4.90;4.60;;;25.20;44.50;;;;;;4961671;28;20528;-80
2022/09/08 03:47:42;;;;;;;4.67;4.40;;;25.20;44.60;;;;;;4961895;29;20421;-80
2022/09/08 03:50:10;;;;;;;4.87;4.57;;;25.30;44.80;;;;;;4961489;29;20432;-80
2022/09/08 03:52:38;;;;;;;4.37;4.17;;;25.30;44.50;;;;;;4961633;29;20429;-80
2022/09/08 03:55:08;;;;;;;4.03;3.83;;;25.20;44.40;;;;;;4956923;28;20479;-80
2022/09/08 03:57:36;;;;;;;4.27;4.07;;;25.20;44.40;;;;;;4961672;29;20476;-80
2022/09/08 04:00:05;;;;;;;4.30;4.10;;;25.20;44.40;;;;;;4960884;29;20432;-80
2022/09/08 04:02:33;;;;;;;4.40;4.10;;;25.20;44.50;;;;;;4960965;29;20421;-80
2022/09/08 04:05:02;;;;;;;4.00;3.80;;;25.20;44.50;;;;;;4971133;28;20504;-80
2022/09/08 04:07:30;;;;;;;4.20;3.90;;;25.10;44.60;;;;;;4980624;28;20425;-80
2022/09/08 04:10:01;;;;;;;4.23;4.03;;;25.20;44.70;;;;;;4980826;28;20651;-80
2022/09/08 04:12:39;;;;;;;4.40;4.10;;;25.20;44.70;;;;;;4981019;28;20413;-80
2022/09/08 04:15:08;;;;;;;4.67;4.37;;;25.20;44.50;;;;;;4980837;28;20437;-80
2022/09/08 04:17:36;;;;;;;4.37;4.10;;;25.20;44.60;;;;;;4980213;28;20482;-80
2022/09/08 04:20:07;;;;;;;4.57;4.27;;;25.20;44.60;;;;;;4980023;28;20469;-80
2022/09/08 04:22:34;;;;;;;4.20;4.00;;;25.10;44.40;;;;;;4980290;28;20417;-80
2022/09/08 04:25:02;;;;;;;4.60;4.30;;;25.20;44.60;;;;;;4980531;28;20448;-80
2022/09/08 04:27:30;;;;;;;4.50;4.20;;;25.10;44.40;;;;;;4979905;28;20405;-80
2022/09/08 04:29:58;;;;;;;3.87;3.67;;;25.00;44.50;;;;;;4980322;28;20442;-80
2022/09/08 04:32:26;;;;;;;4.80;4.40;;;25.00;44.60;;;;;;4981407;28;20436;-80
2022/09/08 04:34:53;;;;;;;4.20;4.00;;;25.10;44.70;;;;;;4980646;28;20443;-80
2022/09/08 04:37:22;;;;;;;4.13;3.93;;;25.00;44.60;;;;;;4980205;28;20470;-80
2022/09/08 04:39:50;;;;;;;3.97;3.70;;;25.10;44.70;;;;;;4981000;28;20478;-80
2022/09/08 04:42:21;;;;;;;4.53;4.23;;;25.10;44.40;;;;;;4979934;28;20425;-80
2022/09/08 04:44:49;;;;;;;4.10;3.90;;;25.00;44.40;;;;;;4980128;28;20428;-80
2022/09/08 04:47:17;;;;;;;4.13;3.83;;;25.00;44.70;;;;;;4980202;28;20446;-80
2022/09/08 04:49:45;;;;;;;4.00;3.80;;;25.10;44.50;;;;;;4979650;28;20517;-80
2022/09/08 04:52:13;;;;;;;4.63;4.23;;;25.10;44.40;;;;;;4979423;28;20425;-80
2022/09/08 04:54:42;;;;;;;3.90;3.70;;;25.00;44.40;;;;;;4979850;28;20448;-80
2022/09/08 04:57:10;;;;;;;4.40;4.10;;;25.00;44.50;;;;;;4982569;28;20475;-80
2022/09/08 04:59:39;;;;;;;4.63;4.33;;;25.10;44.50;;;;;;4987568;28;20436;-80
2022/09/08 05:02:07;;;;;;;4.30;4.10;;;25.00;44.20;;;;;;4982842;28;20446;-80
2022/09/08 05:04:37;;;;;;;4.03;3.83;;;25.00;44.20;;;;;;4975382;28;20435;-80
2022/09/08 05:07:05;;;;;;;3.93;3.73;;;25.00;44.40;;;;;;4961973;29;20463;-80
2022/09/08 05:09:33;;;;;;;4.50;4.20;;;25.00;44.40;;;;;;4962686;28;20482;-80
2022/09/08 05:12:03;;;;;;;4.23;4.03;;;25.00;44.40;;;;;;4961893;29;20445;-81
2022/09/08 05:14:31;;;;;;;4.50;4.20;;;25.00;44.50;;;;;;4959255;28;20439;-80
2022/09/08 05:16:59;;;;;;;3.80;3.60;;;25.00;44.40;;;;;;4956698;29;20435;-80
2022/09/08 05:19:27;;;;;;;4.40;4.10;;;25.00;44.40;;;;;;4958249;29;20550;-80
2022/09/08 05:21:57;;;;;;;4.57;4.27;;;25.00;44.30;;;;;;4957571;29;20446;-81
2022/09/08 05:24:25;;;;;;;4.50;4.20;;;25.00;44.30;;;;;;4957079;28;20483;-81
2022/09/08 05:26:54;;;;;;;4.43;4.23;;;25.00;44.10;;;;;;4958097;28;20483;-80
2022/09/08 05:29:23;;;;;;;5.37;4.97;;;25.00;44.20;;;;;;4957640;29;20447;-81
2022/09/08 05:31:51;;;;;;;5.17;4.77;;;25.00;44.40;;;;;;4958317;29;20453;-81
2022/09/08 05:34:19;;;;;;;5.50;5.10;;;25.00;44.20;;;;;;4958798;29;20481;-81
2022/09/08 05:36:47;;;;;;;5.73;5.33;;;25.00;44.40;;;;;;4958397;28;20483;-81
2022/09/08 05:39:18;;;;;;;5.33;4.93;;;25.00;44.30;;;;;;4957910;28;20450;-81
2022/09/08 05:41:46;;;;;;;5.33;4.93;;;25.00;44.40;;;;;;4958396;29;20455;-80
2022/09/08 05:44:15;;;;;;;6.23;5.73;;;25.00;44.20;;;;;;4958184;29;20451;-81
2022/09/08 05:46:45;;;;;;;6.27;5.77;;;25.00;44.10;;;;;;4958038;28;20457;-80
2022/09/08 05:49:13;;;;;;;6.40;5.90;;;25.00;44.20;;;;;;4957216;29;20475;-81
2022/09/08 05:51:41;;;;;;;9.93;5.87;;;25.10;44.10;;;;;;4957580;29;20427;-81
2022/09/08 05:54:09;;;;;;;6.70;6.20;;;25.00;44.00;;;;;;4952550;29;20429;-80
2022/09/08 05:56:37;;;;;;;6.23;5.83;;;25.00;44.30;;;;;;4958033;28;20474;-80
2022/09/08 05:59:06;;;;;;;6.17;5.67;;;25.00;44.00;;;;;;4957452;29;20483;-80
2022/09/08 06:01:34;;;;;;;6.20;5.70;;;25.00;44.20;;;;;;4959172;29;20430;-81
2022/09/08 06:04:04;;;;;;;5.80;5.40;;;25.00;44.10;;;;;;4959171;28;20458;-80
2022/09/08 06:06:32;;;;;;;6.73;6.13;;;25.10;44.00;;;;;;4976833;28;20477;-81
2022/09/08 06:09:01;;;;;;;6.43;5.93;;;25.10;44.00;;;;;;4976820;28;20446;-80
2022/09/08 06:11:29;;;;;;;6.20;5.70;;;25.00;44.20;;;;;;4977867;28;20529;-80
2022/09/08 06:13:57;;;;;;;6.03;5.63;;;25.10;44.10;;;;;;4979191;28;20424;-81
2022/09/08 06:16:26;;;;;;;6.63;6.07;;;25.10;44.00;;;;;;4978245;28;20451;-80
2022/09/08 06:18:57;;;;;;;6.33;5.83;;;25.10;44.00;;;;;;4978235;28;20477;-81
2022/09/08 06:21:29;;;;;;;6.77;6.20;;;25.20;44.10;;;;;;4977800;28;20457;-81
2022/09/08 06:24:07;;;;;;;6.70;6.20;;;25.20;43.90;;;;;;4977240;28;20450;-81
2022/09/08 06:26:46;;;;;;;7.13;6.43;;;25.20;43.90;;;;;;4978737;28;20553;-81
2022/09/08 06:29:15;;;;;;;8.00;5.67;;;25.20;43.60;;;;;;4978691;28;20456;-81
2022/09/08 06:31:46;;;;;;;6.37;5.77;;;25.10;43.80;;;;;;4977445;28;20542;-80
2022/09/08 06:34:16;;;;;;;7.33;6.07;;;25.10;43.90;;;;;;4977161;28;20480;-81
2022/09/08 06:36:48;;;;;;;6.60;6.10;;;25.10;43.80;;;;;;4983528;28;20453;-81
2022/09/08 06:39:20;;;;;;;6.27;5.43;;;25.20;44.00;;;;;;4987778;28;20445;-81
2022/09/08 06:41:49;;;;;;;7.20;6.60;;;25.20;43.80;;;;;;4982387;28;20446;-81
2022/09/08 06:44:20;;;;;;;6.37;5.87;;;25.20;43.80;;;;;;4978772;28;20456;-79
2022/09/08 06:46:48;;;;;;;7.37;6.77;;;25.30;43.70;;;;;;4978566;28;20470;-79
2022/09/08 06:49:19;;;;;;;6.73;6.20;;;25.30;43.60;;;;;;4978811;28;20446;-80
2022/09/08 06:51:51;;;;;;;6.73;6.13;;;25.30;43.80;;;;;;4978550;28;20420;-80
2022/09/08 06:54:26;;;;;;;6.13;5.73;;;25.30;43.70;;;;;;4978376;28;20448;-80
2022/09/08 06:57:01;;;;;;;6.43;5.90;;;25.30;43.60;;;;;;4978145;28;20448;-80
2022/09/08 06:59:51;;;;;;;6.73;6.10;;;25.20;43.60;;;;;;4973366;28;20478;-80
2022/09/08 07:02:42;;;;;;;7.00;6.13;;;25.30;43.80;;;;;;4977676;28;20428;-79
2022/09/08 07:05:18;;;;;;;5.97;5.57;;;25.30;43.60;;;;;;4978005;28;20510;-79
2022/09/08 07:07:49;;;;;;;6.70;6.20;;;25.30;43.70;;;;;;4977194;28;20420;-79
2022/09/08 07:10:19;;;;;;;6.53;6.03;;;25.40;43.50;;;;;;4976945;28;20448;-77
2022/09/08 07:12:50;;;;;;;6.30;5.70;;;25.40;43.40;;;;;;4972200;28;20462;-78
2022/09/08 07:15:36;;;;;;;6.90;6.20;;;25.40;43.60;;;;;;4977481;28;20437;-79
2022/09/08 07:18:07;;;;;;;6.10;5.70;;;25.40;43.50;;;;;;4981420;28;20460;-80
2022/09/08 07:20:35;;;;;;;6.27;5.77;;;25.40;43.40;;;;;;4980823;28;20449;-80
2022/09/08 07:23:05;;;;;;;6.10;5.60;;;25.50;43.50;;;;;;4980108;28;20425;-79
2022/09/08 07:25:35;;;;;;;7.27;6.27;;;25.50;43.40;;;;;;4978981;28;20440;-78
2022/09/08 07:28:05;;;;;;;6.37;5.87;;;25.50;43.50;;;;;;4978324;28;20503;-79
2022/09/08 07:30:34;;;;;;;6.77;6.17;;;25.60;43.50;;;;;;4980313;28;20497;-78
2022/09/08 07:33:05;;;;;;;6.77;6.17;;;25.60;43.40;;;;;;4979991;28;20421;-78
2022/09/08 07:36:03;;;;;;;6.57;6.00;;;25.60;43.40;;;;;;4978975;28;20444;-79
2022/09/08 07:38:39;;;;;;;5.53;5.13;;;25.70;43.30;;;;;;4979917;28;20877;-79
2022/09/08 07:41:07;;;;;;;6.17;5.73;;;25.70;43.20;;;;;;4980171;28;20430;-79
2022/09/08 07:43:35;;;;;;;6.70;6.10;;;25.70;43.50;;;;;;4980147;28;20889;-79
2022/09/08 07:46:22;;;;;;;6.07;5.53;;;25.80;43.50;;;;;;4978961;28;20462;-78
2022/09/08 07:48:51;;;;;;;6.70;6.20;;;25.90;43.30;;;;;;4969197;28;20431;-78
2022/09/08 07:51:21;;;;;;;6.20;5.70;;;25.90;43.40;;;;;;4979933;28;20424;-79
2022/09/08 07:54:00;;;;;;;6.33;5.83;;;26.00;43.20;;;;;;4979945;28;20501;-78
2022/09/08 07:56:31;;;;;;;6.70;6.20;;;26.00;43.30;;;;;;4977181;28;20481;-79
2022/09/08 07:59:24;;;;;;;6.87;6.30;;;26.00;43.30;;;;;;4979452;28;20448;-79
2022/09/08 08:01:58;;;;;;;6.57;6.07;;;26.00;43.10;;;;;;4979768;28;20454;-78
2022/09/08 08:04:39;;;;;;;6.77;6.07;;;26.00;43.40;;;;;;4979279;28;20457;-79
2022/09/08 08:07:08;;;;;;;7.03;6.43;;;26.10;43.60;;;;;;4979212;28;20417;-79
2022/09/08 08:09:40;;;;;;;7.33;6.63;;;26.10;43.50;;;;;;4986689;28;20434;-78
2022/09/08 08:12:11;;;;;;;7.00;6.30;;;26.10;43.50;;;;;;4981025;28;20447;-79
2022/09/08 08:14:43;;;;;;;6.63;5.87;;;26.10;43.60;;;;;;4980807;28;20432;-78
2022/09/08 08:17:22;;;;;;;6.83;6.33;;;26.20;43.70;;;;;;4982550;28;20462;-78
2022/09/08 08:20:00;;;;;;;6.20;5.80;;;26.30;43.70;;;;;;4982475;28;20456;-78
2022/09/08 08:22:36;;;;;;;6.50;6.00;;;26.30;43.70;;;;;;4981668;28;20578;-79
2022/09/08 08:25:11;;;;;;;7.00;6.40;;;26.30;43.60;;;;;;4981782;28;20454;-79
2022/09/08 08:27:42;;;;;;;6.13;5.73;;;26.30;43.60;;;;;;4980063;28;20449;-79
2022/09/08 08:30:17;;;;;;;6.37;5.87;;;26.40;43.80;;;;;;4980904;28;20415;-79
2022/09/08 08:32:48;;;;;;;6.97;6.13;;;26.40;43.60;;;;;;4977716;28;20442;-79
2022/09/08 08:35:19;;;;;;;7.33;6.63;;;26.40;43.80;;;;;;4979224;28;20440;-79
2022/09/08 08:37:49;;;;;;;6.73;6.10;;;26.40;43.80;;;;;;4979419;28;20417;-78
2022/09/08 08:40:28;;;;;;;7.13;6.50;;;26.30;43.80;;;;;;4979742;28;20445;-78
2022/09/08 08:43:04;;;;;;;7.70;7.00;;;26.40;43.90;;;;;;4979899;28;20429;-79
2022/09/08 08:45:33;;;;;;;7.53;6.83;;;26.40;43.90;;;;;;4980242;28;20432;-79
2022/09/08 08:48:13;;;;;;;7.10;6.50;;;26.40;44.00;;;;;;4978941;28;20432;-79
2022/09/08 08:51:07;;;;;;;8.20;7.37;;;26.40;44.00;;;;;;4970691;28;20444;-79
2022/09/08 08:53:52;;;;;;;7.97;7.27;;;26.40;44.10;;;;;;4945378;28;20401;-79
2022/09/08 08:56:34;;;;;;;8.17;7.47;;;26.40;44.20;;;;;;4980636;28;20448;-79
2022/09/08 08:59:21;;;;;;;8.17;7.37;;;26.40;44.20;;;;;;4977827;28;20434;-78
2022/09/08 09:01:56;;;;;;;7.40;6.80;;;26.40;44.20;;;;;;4976847;28;20436;-78
2022/09/08 09:04:45;;;;;;;8.00;7.20;;;26.40;44.30;;;;;;4977269;28;20665;-78
2022/09/08 09:07:44;;;;;;;7.83;6.93;;;26.40;44.20;;;;;;4973744;28;20454;-78
2022/09/08 09:10:40;;;;;;;8.83;7.93;;;26.40;44.20;;;;;;4958353;28;20506;-78
2022/09/08 09:13:16;;;;;;;7.53;6.83;;;26.30;44.30;;;;;;4957036;28;20450;-77
2022/09/08 09:15:53;;;;;;;9.23;8.27;;;26.30;44.30;;;;;;4956617;28;20470;-77
2022/09/08 09:19:07;;;;;;;8.20;7.40;;;26.30;44.40;;;;;;4957072;28;20447;-77
2022/09/08 09:21:46;;;;;;;10.07;8.20;;;26.30;44.50;;;;;;4960260;28;20463;-77
2022/09/08 09:24:15;;;;;;;8.20;7.50;;;26.30;44.40;;;;;;4976252;28;20458;-78
2022/09/08 09:26:47;;;;;;;8.10;7.40;;;26.30;44.50;;;;;;4976189;28;20444;-77
2022/09/08 09:29:20;;;;;;;8.13;7.33;;;26.30;44.60;;;;;;4976374;28;20461;-77
2022/09/08 09:32:29;;;;;;;9.33;8.00;;;26.30;44.70;;;;;;4976084;28;20424;-77
2022/09/08 09:35:04;;;;;;;8.90;8.10;;;26.30;44.60;;;;;;4975058;28;20485;-77
2022/09/08 09:37:59;;;;;;;8.70;7.80;;;26.30;44.80;;;;;;4974950;28;20431;-77
2022/09/08 09:40:37;;;;;;;13.80;8.80;;;26.20;44.80;;;;;;4937861;28;20448;-77
2022/09/08 09:43:26;;;;;;;9.30;8.40;;;26.20;44.80;;;;;;4974687;28;20424;-77
2022/09/08 09:46:09;;;;;;;8.90;8.00;;;26.30;45.00;;;;;;4974689;28;20456;-77
2022/09/08 09:48:50;;;;;;;8.83;8.00;;;26.20;44.90;;;;;;4974974;28;20446;-77
2022/09/08 09:51:25;;;;;;;8.83;8.03;;;26.20;44.90;;;;;;4974675;28;20500;-77
2022/09/08 09:54:10;;;;;;;10.00;8.53;;;26.20;45.00;;;;;;4974597;28;20428;-77
2022/09/08 09:57:06;;;;;;;10.00;9.10;;;26.20;45.00;;;;;;4972050;28;20489;-78
2022/09/08 10:00:18;;;;;;;10.20;9.20;;;26.20;45.10;;;;;;4936929;28;20473;-77
2022/09/08 10:03:27;;;;;;;9.80;8.90;;;26.20;45.50;;;;;;4955532;29;20437;-78
2022/09/08 10:06:22;;;;;;;9.37;8.47;;;26.20;45.70;;;;;;4954753;28;20981;-78
2022/09/08 10:09:34;;;;;;;9.00;8.10;;;26.20;46.00;;;;;;4955317;29;20418;-78
2022/09/08 10:12:34;;;;;;;9.43;8.53;;;26.20;45.90;;;;;;4961924;28;20421;-78
2022/09/08 10:15:42;;;;;;;9.20;8.03;;;26.20;46.00;;;;;;4968536;28;20470;-78
2022/09/08 10:18:28;;;;;;;8.77;7.97;;;26.20;45.90;;;;;;4973904;28;20442;-78
2022/09/08 10:21:13;;;;;;;9.10;8.20;;;26.20;46.00;;;;;;4974241;28;20456;-77
2022/09/08 10:23:54;;;;;;;8.60;7.70;;;26.20;46.00;;;;;;4976198;28;20412;-78
2022/09/08 10:27:08;;;;;;;8.87;7.97;;;26.20;46.00;;;;;;4975368;28;20480;-79
2022/09/08 10:29:47;;;;;;;8.93;8.03;;;26.20;46.00;;;;;;4917546;29;20419;-79
2022/09/08 10:32:59;;;;;;;8.50;7.70;;;26.20;46.10;;;;;;4968236;28;20432;-79
2022/09/08 10:35:36;;;;;;;8.80;8.00;;;26.20;46.10;;;;;;4897559;29;20480;-79
2022/09/08 10:38:28;;;;;;;8.70;7.80;;;26.20;46.10;;;;;;4962331;28;20449;-79
2022/09/08 10:41:17;;;;;;;7.90;7.20;;;26.20;46.00;;;;;;4976082;28;20470;-79
2022/09/08 10:44:01;;;;;;;7.73;7.10;;;26.20;46.20;;;;;;4973298;28;20428;-79
2022/09/08 10:46:59;;;;;;;8.27;7.23;;;26.20;46.20;;;;;;4974322;28;20478;-79
2022/09/08 10:49:53;;;;;;;8.97;8.03;;;26.20;46.10;;;;;;4975114;28;20421;-79
2022/09/08 10:52:31;;;;;;;8.30;7.60;;;26.20;46.10;;;;;;4979993;28;20428;-78
2022/09/08 10:55:11;;;;;;;8.50;7.80;;;26.20;46.20;;;;;;4980363;28;20465;-79
2022/09/08 10:57:49;;;;;;;9.00;8.10;;;26.20;46.20;;;;;;4979940;28;20412;-78
2022/09/08 11:00:19;;;;;;;8.47;7.73;;;26.20;46.20;;;;;;4977267;28;20489;-79
2022/09/08 11:03:22;;;;;;;8.43;7.63;;;26.10;46.00;;;;;;4979953;28;20420;-79
2022/09/08 11:05:50;;;;;;;7.70;7.00;;;26.20;46.20;;;;;;4980428;28;20437;-79
2022/09/08 11:08:41;;;;;;;7.93;7.30;;;26.20;46.30;;;;;;4979582;28;20412;-78
2022/09/08 11:11:20;;;;;;;11.00;7.40;;;26.20;46.20;;;;;;4981006;28;20800;-79
2022/09/08 11:13:59;;;;;;;7.43;6.80;;;26.20;46.10;;;;;;4980368;28;20404;-79
2022/09/08 11:16:38;;;;;;;8.60;7.80;;;26.20;46.20;;;;;;4977680;28;20473;-78
2022/09/08 11:19:23;;;;;;;7.30;6.60;;;26.20;46.20;;;;;;4980251;28;20465;-78
2022/09/08 11:22:12;;;;;;;7.73;7.03;;;26.10;46.20;;;;;;4980177;28;20548;-78
2022/09/08 11:24:45;;;;;;;8.00;7.27;;;26.20;46.50;;;;;;4979454;28;20421;-78
2022/09/08 11:27:15;;;;;;;7.40;6.80;;;26.20;47.00;;;;;;4979695;28;20446;-78
2022/09/08 11:29:43;;;;;;;7.27;6.73;;;26.20;46.20;;;;;;4981198;28;20417;-78
2022/09/08 11:32:16;;;;;;;7.77;6.80;;;26.20;46.40;;;;;;4979809;28;20432;-77
2022/09/08 11:35:13;;;;;;;7.13;6.50;;;26.20;46.30;;;;;;4962487;28;20417;-78
2022/09/08 11:37:49;;;;;;;7.73;7.03;;;26.20;46.30;;;;;;4961898;29;20449;-78
2022/09/08 11:40:41;;;;;;;7.30;6.60;;;26.20;46.40;;;;;;4962045;28;20477;-78
2022/09/08 11:43:28;;;;;;;7.60;6.93;;;26.30;46.30;;;;;;4961780;28;20451;-78
2022/09/08 11:46:06;;;;;;;7.53;6.80;;;26.30;46.20;;;;;;4961901;28;20466;-79
2022/09/08 11:48:58;;;;;;;8.37;7.57;;;26.30;46.40;;;;;;4981601;28;20452;-80
2022/09/08 11:52:04;;;;;;;7.37;6.83;;;26.30;46.30;;;;;;4979821;28;20408;-79
2022/09/08 11:55:03;;;;;;;7.20;6.60;;;26.30;46.40;;;;;;4979925;28;20440;-79
2022/09/08 11:57:42;;;;;;;6.77;6.27;;;26.30;46.40;;;;;;4980270;28;20412;-79
2022/09/08 12:00:25;;;;;;;7.57;6.87;;;26.30;46.20;;;;;;4979740;28;20415;-78
2022/09/08 12:03:25;;;;;;;7.40;6.70;;;26.20;46.30;;;;;;4973125;28;20979;-79
2022/09/08 12:06:34;;;;;;;7.73;7.00;;;26.20;46.40;;;;;;4987421;28;20479;-78
2022/09/08 12:09:17;;;;;;;7.70;7.10;;;26.30;46.40;;;;;;4937721;28;20413;-78
2022/09/08 12:12:00;;;;;;;7.67;7.03;;;26.20;46.50;;;;;;4976183;28;20437;-78
2022/09/08 12:14:33;;;;;;;7.87;7.17;;;26.30;46.40;;;;;;4989945;28;20450;-78
2022/09/08 12:17:07;;;;;;;7.60;7.00;;;26.20;46.50;;;;;;4988525;28;20453;-78
2022/09/08 12:19:42;;;;;;;8.37;7.57;;;26.20;46.60;;;;;;4994671;28;20448;-78
2022/09/08 12:22:17;;;;;;;7.70;7.10;;;26.20;46.70;;;;;;4993022;28;20453;-78
2022/09/08 12:24:54;;;;;;;7.33;6.67;;;26.20;46.60;;;;;;4992970;28;20412;-78
2022/09/08 12:27:51;;;;;;;7.23;6.63;;;26.30;46.70;;;;;;5000545;28;20419;-77
2022/09/08 12:30:21;;;;;;;8.27;7.47;;;26.20;46.60;;;;;;4997768;28;20418;-78
2022/09/08 12:33:08;;;;;;;6.57;6.07;;;26.30;46.60;;;;;;4998111;28;20436;-78
2022/09/08 12:35:36;;;;;;;7.77;7.10;;;26.20;46.40;;;;;;4998092;28;20468;-78
2022/09/08 12:38:25;;;;;;;6.57;6.07;;;26.30;46.80;;;;;;4999244;28;20426;-79
2022/09/08 12:41:27;;;;;;;7.97;7.27;;;26.40;47.20;;;;;;4985806;28;20409;-78
2022/09/08 12:43:56;;;;;;;7.00;6.50;;;26.30;46.60;;;;;;4951695;28;20453;-78
2022/09/08 12:46:50;;;;;;;7.83;7.03;;;26.30;46.50;;;;;;4983743;28;20433;-79
2022/09/08 12:49:40;;;;;;;7.67;6.97;;;26.40;46.60;;;;;;4983117;28;20446;-79
2022/09/08 12:52:11;;;;;;;7.70;7.03;;;26.40;46.50;;;;;;4982872;28;20508;-79
2022/09/08 12:54:44;;;;;;;7.67;7.03;;;26.40;46.60;;;;;;4983714;28;20450;-79
2022/09/08 12:57:54;;;;;;;7.40;6.80;;;26.40;46.60;;;;;;4981004;28;20454;-79
2022/09/08 13:00:26;;;;;;;7.00;6.50;;;26.50;47.10;;;;;;4974488;28;20442;-79
2022/09/08 13:03:22;;;;;;;7.60;6.90;;;26.40;46.60;;;;;;4980265;28;20461;-79
2022/09/08 13:05:58;;;;;;;7.93;7.20;;;26.40;46.60;;;;;;4981112;28;20524;-79
2022/09/08 13:08:33;;;;;;;7.23;6.63;;;26.30;46.60;;;;;;4979088;28;20419;-78
2022/09/08 13:11:05;;;;;;;7.20;6.60;;;26.30;46.60;;;;;;4979056;28;20919;-79
2022/09/08 13:13:36;;;;;;;7.40;6.73;;;26.40;46.70;;;;;;4974089;28;20450;-79
2022/09/08 13:16:13;;;;;;;7.53;6.90;;;26.30;46.60;;;;;;4978445;28;20458;-78
2022/09/08 13:18:45;;;;;;;7.70;6.90;;;26.40;46.70;;;;;;4978312;28;20448;-79
2022/09/08 13:21:14;;;;;;;7.17;6.67;;;26.40;46.70;;;;;;4978066;28;20442;-79
2022/09/08 13:23:46;;;;;;;7.07;6.50;;;26.40;46.50;;;;;;4978212;28;20980;-79
2022/09/08 13:26:26;;;;;;;7.20;6.60;;;26.40;46.80;;;;;;4978639;28;20466;-79
2022/09/08 13:29:22;;;;;;;8.00;7.20;;;26.40;46.40;;;;;;4975915;28;20465;-79
2022/09/08 13:32:19;;;;;;;7.37;6.77;;;26.50;46.60;;;;;;4973492;28;20464;-78